Etusivu
METAR-TAF:

METAR-TAF

Lentoasemat :

Seldovia, Alaska, Yhdysvallat

Leveyspiiri: 59-27N, Pituuspiiri: 151-42W, korkeus merenpinnasta: 9 m

Tämänhetkinen sää

Tämä raportti tehtiin 23 minuuttia sitten, kello 07.28 UTC
tyyntä
Lämpötila 12°C
Kosteus 82%
Ilmanpaine 998 hPa
Näkyvyys: 14.5 km
Muutamia pilviä 300 ft:n korkeudessa
Hajonneita pilviä 700 ft:n korkeudessa
Pilvistä 2900 ft:n korkeudessa
heikkoa sadetta

METAR: PASO 140728Z AUTO 00000KT 9SM -RA FEW003 BKN007 OVC029 12/09 A2946 RMK AO2 P0001 T01170094 TSNO

Aika: 23:51 (07:51 UTC)


TAF: puuttuu

Säähavainnot ja -ennusteet yli 4000 lentoasemalta (METAR- ja TAF-raportit).

Käytössä olevat sääasemat on merkitty karttaan keltaisilla ja punaisilla pisteillä.

Aseta hiiri pisteen päälle nähdäksesi sääaseman nimen.

Klikkaa sitten nähdäksesi säähavainnot ja -ennusteet.

Kartan vaihtaminen: klikkaa mustalla rastilla varustettuja vihreitä pisteitä, niin voit zoomata sisään; viivalla varustettua vihreää pistettä, niin voit zoomata ulos tai vihreitä nuolia, niin pääset viereisille kartoille.


METAR-TAF: